Time;durP1;ratioP1;P1;durP2;ratioP2;P2;SDS_P1;SDS_P2;PMS_P1;PMS_P2;Temp;Humidity;BMP_temperature;BMP_pressure;BME280_temperature;BME280_humidity;BME280_pressure;Samples;Min_cycle;Max_cycle;Signal;HPM_P1;HPM_P2
2022/06/24 00:00:09;;;;;;;0.93;0.80;;;;;;;18.42;69.74;100048.73;1684135;84;21522;-70
2022/06/24 00:02:38;;;;;;;4.50;1.32;;;;;;;18.42;69.54;100051.42;1682801;84;21054;-71
2022/06/24 00:05:13;;;;;;;2.00;0.57;;;;;;;18.44;69.69;100045.76;1679206;84;21064;-70
2022/06/24 00:07:49;;;;;;;3.92;1.60;;;;;;;18.44;69.79;100049.80;1679751;84;21126;-72
2022/06/24 00:10:19;;;;;;;0.98;0.80;;;;;;;18.43;70.03;100050.34;1680558;84;21077;-71
2022/06/24 00:12:47;;;;;;;1.10;0.60;;;;;;;18.43;70.09;100050.89;1674408;84;21046;-71
2022/06/24 00:15:14;;;;;;;1.55;0.85;;;;;;;18.45;70.24;100054.96;1686028;84;21078;-71
2022/06/24 00:17:41;;;;;;;2.98;0.90;;;;;;;18.46;69.78;100052.56;1685268;84;21081;-71
2022/06/24 00:20:13;;;;;;;1.35;1.00;;;;;;;18.45;69.47;100058.20;1680037;84;21224;-73
2022/06/24 00:22:45;;;;;;;2.10;0.75;;;;;;;18.44;69.64;100055.20;1677679;83;21090;-71
2022/06/24 00:25:15;;;;;;;2.70;1.25;;;;;;;18.44;69.81;100060.09;1683247;84;21612;-70
2022/06/24 00:27:45;;;;;;;1.25;0.60;;;;;;;18.45;69.63;100058.20;1686136;84;21086;-71
2022/06/24 00:30:16;;;;;;;1.80;0.90;;;;;;;18.46;69.96;100064.70;1674414;84;21233;-71
2022/06/24 00:32:44;;;;;;;1.80;1.00;;;;;;;18.43;70.40;100050.34;1682855;84;21113;-71
2022/06/24 00:35:14;;;;;;;3.60;1.00;;;;;;;18.40;71.10;100053.56;1685938;84;21153;-71
2022/06/24 00:37:44;;;;;;;2.87;0.90;;;;;;;18.41;71.68;100053.83;1674465;84;21313;-70
2022/06/24 00:40:16;;;;;;;1.40;0.93;;;;;;;18.37;71.92;100047.84;1685033;84;21569;-71
2022/06/24 00:42:44;;;;;;;1.95;1.40;;;;;;;18.33;72.13;100048.86;1680730;84;21589;-70
2022/06/24 00:45:31;;;;;;;3.62;1.02;;;;;;;18.31;72.61;100053.69;1685432;84;20995;-72
2022/06/24 00:48:00;;;;;;;1.57;1.47;;;;;;;18.27;73.07;100037.68;1683744;84;21189;-71
2022/06/24 00:50:31;;;;;;;1.67;1.57;;;;;;;18.23;74.37;100022.55;1682609;84;21042;-72
2022/06/24 00:53:00;;;;;;;3.17;0.85;;;;;;;18.22;74.52;100031.69;1673240;84;21015;-71
2022/06/24 00:55:34;;;;;;;1.45;1.25;;;;;;;18.22;74.79;100044.37;1683274;84;21094;-71
2022/06/24 00:58:01;;;;;;;1.67;0.80;;;;;;;18.20;75.04;100044.61;1674852;84;21062;-72
2022/06/24 01:00:31;;;;;;;1.50;1.05;;;;;;;18.15;75.35;100038.31;1670839;84;21013;-71
2022/06/24 01:03:00;;;;;;;3.12;1.47;;;;;;;18.07;75.36;100041.70;1686239;84;22317;-73
2022/06/24 01:05:28;;;;;;;1.52;1.02;;;;;;;18.02;75.61;100065.88;1685405;84;21150;-71
2022/06/24 01:07:55;;;;;;;1.62;1.07;;;;;;;17.98;75.20;100062.58;1683948;84;21114;-71
2022/06/24 01:10:22;;;;;;;2.90;1.35;;;;;;;17.96;76.00;100057.97;1685497;84;21050;-70
2022/06/24 01:12:49;;;;;;;2.08;1.35;;;;;;;17.89;77.15;100059.45;1673177;84;21122;-72
2022/06/24 01:15:15;;;;;;;6.80;2.17;;;;;;;17.83;77.80;100045.58;1674823;84;21241;-71
2022/06/24 01:17:42;;;;;;;1.65;1.05;;;;;;;17.78;78.42;100038.23;1674689;84;21015;-71
2022/06/24 01:20:11;;;;;;;3.42;1.40;;;;;;;17.80;78.58;100043.36;1683624;84;21149;-70
2022/06/24 01:22:39;;;;;;;3.12;1.20;;;;;;;17.82;79.04;100060.11;1680954;83;21030;-70
2022/06/24 01:25:07;;;;;;;2.72;1.30;;;;;;;17.78;79.91;100046.32;1685587;84;21022;-70
2022/06/24 01:27:34;;;;;;;1.70;1.60;;;;;;;17.73;80.01;100048.11;1680842;84;21034;-70
2022/06/24 01:30:00;;;;;;;3.55;1.12;;;;;;;17.66;81.05;100035.58;1686507;84;21121;-70
2022/06/24 01:32:27;;;;;;;1.45;1.32;;;;;;;17.66;81.35;100042.86;1676901;84;21093;-70
2022/06/24 01:34:53;;;;;;;1.72;1.62;;;;;;;17.70;81.57;100033.22;1678648;84;21529;-70
2022/06/24 01:40:11;;;;;;;5.28;3.35;;;;;;;17.86;81.56;100034.35;1811910;77;22667;-70
2022/06/24 01:42:37;;;;;;;2.80;1.30;;;;;;;17.83;82.09;100043.69;1779771;79;20982;-71
2022/06/24 01:45:06;;;;;;;3.20;1.95;;;;;;;17.88;83.20;100041.13;1775629;79;21082;-70
2022/06/24 01:47:33;;;;;;;1.57;1.47;;;;;;;17.89;83.41;100038.73;1757584;80;22189;-73
2022/06/24 01:49:59;;;;;;;1.98;1.87;;;;;;;17.92;83.77;100035.25;1762632;81;21007;-71
2022/06/24 01:52:25;;;;;;;2.12;2.02;;;;;;;17.92;84.07;100033.37;1753690;80;21013;-70
2022/06/24 01:54:51;;;;;;;2.15;2.05;;;;;;;17.92;84.60;100029.33;1761621;80;21018;-71
2022/06/24 01:57:18;;;;;;;3.98;2.72;;;;;;;17.93;84.59;100032.83;1748947;80;21423;-70
2022/06/24 01:59:44;;;;;;;7.03;2.17;;;;;;;17.91;85.15;100033.06;1756075;80;20987;-71
2022/06/24 02:02:10;;;;;;;1.52;1.35;;;;;;;17.91;85.32;100042.50;1739369;81;21055;-70
2022/06/24 02:04:36;;;;;;;;;;;;;;;17.94;84.68;100040.67;1748015;81;21044;-71
2022/06/24 02:07:03;;;;;;;4.15;1.37;;;;;;;17.96;84.20;100035.86;1737978;81;20433;-71
2022/06/24 02:09:29;;;;;;;2.20;2.00;;;;;;;17.96;84.18;100039.09;1735543;81;20993;-73
2022/06/24 02:14:40;;;;;;;2.20;1.57;;;;;;;18.01;82.43;100027.86;1702298;83;21098;-71
2022/06/24 02:17:06;;;;;;;4.15;1.77;;;;;;;18.03;81.42;100037.87;1698754;83;21665;-71
2022/06/24 02:19:33;;;;;;;2.72;0.90;;;;;;;18.02;80.55;100038.91;1714576;83;21023;-72
2022/06/24 02:21:58;;;;;;;;;;;;;;;18.01;78.83;100038.64;1705406;83;22154;-70
2022/06/24 02:24:25;;;;;;;4.60;1.32;;;;;;;18.00;77.84;100032.95;1732424;81;20137;-70
2022/06/24 02:26:51;;;;;;;2.17;1.25;;;;;;;17.96;77.72;100036.39;1732542;81;21351;-71
2022/06/24 02:29:17;;;;;;;2.58;0.78;;;;;;;17.98;77.56;100032.38;1733301;81;21013;-70
2022/06/24 02:31:43;;;;;;;3.37;0.60;;;;;;;18.02;77.18;100032.17;1698222;83;21534;-71
2022/06/24 02:34:10;;;;;;;;;;;;;;;18.03;75.22;100034.36;1665874;84;21205;-70
2022/06/24 02:36:36;;;;;;;2.47;1.12;;;;;;;18.03;74.92;100039.22;1680377;84;20163;-71
2022/06/24 02:39:04;;;;;;;5.58;1.02;;;;;;;17.99;75.03;100028.64;1693925;83;21572;-71
2022/06/24 02:41:30;;;;;;;1.25;0.68;;;;;;;18.00;74.58;100030.26;1683896;84;21604;-72
2022/06/24 02:43:56;;;;;;;1.70;1.00;;;;;;;18.03;73.38;100032.47;1684299;84;21103;-71
2022/06/24 02:46:23;;;;;;;1.45;1.12;;;;;;;18.04;73.03;100034.09;1685080;84;21073;-71
2022/06/24 02:48:49;;;;;;;1.52;1.15;;;;;;;18.04;72.66;100038.67;1688830;84;21132;-71
2022/06/24 02:51:16;;;;;;;0.50;0.50;;;;;;;18.04;72.67;100038.14;1695159;84;21125;-70
2022/06/24 02:53:45;;;;;;;3.17;1.30;;;;;;;18.06;72.87;100044.13;1696658;83;21480;-71
2022/06/24 02:56:14;;;;;;;1.90;0.82;;;;;;;18.08;72.60;100038.47;1675015;84;21518;-70
2022/06/24 02:58:42;;;;;;;1.50;1.00;;;;;;;18.11;72.29;100039.34;1670254;84;21588;-71
2022/06/24 03:01:10;;;;;;;1.72;1.10;;;;;;;18.15;71.99;100039.12;1677195;84;21518;-73
2022/06/24 03:03:37;;;;;;;1.67;0.95;;;;;;;18.16;70.97;100033.19;1698331;83;21048;-72
2022/06/24 03:06:04;;;;;;;4.40;0.65;;;;;;;18.16;71.09;100043.47;1673101;84;21564;-71
2022/06/24 03:08:31;;;;;;;0.93;0.55;;;;;;;18.17;70.18;100041.58;1707669;83;21142;-72
2022/06/24 03:10:57;;;;;;;3.85;0.72;;;;;;;18.17;69.19;100042.93;1670438;84;21113;-72
2022/06/24 03:13:24;;;;;;;2.58;0.82;;;;;;;18.19;68.23;100036.22;1705000;81;21073;-73
2022/06/24 03:15:51;;;;;;;1.10;0.50;;;;;;;18.24;68.01;100039.00;1697096;83;21131;-71
2022/06/24 03:18:18;;;;;;;2.42;0.70;;;;;;;18.27;67.48;100033.63;1673761;84;21109;-71
2022/06/24 03:20:48;;;;;;;2.22;0.70;;;;;;;18.28;67.68;100037.98;1677271;84;21062;-72
2022/06/24 03:23:15;;;;;;;1.20;0.50;;;;;;;18.29;67.39;100034.23;1651574;85;21295;-72
2022/06/24 03:25:43;;;;;;;3.98;0.85;;;;;;;18.32;66.82;100027.52;1683912;84;21119;-72
2022/06/24 03:28:09;;;;;;;0.75;0.50;;;;;;;18.37;65.12;100027.59;1682629;84;21037;-70
2022/06/24 03:30:37;;;;;;;1.10;0.65;;;;;;;18.40;65.02;100035.18;1674993;84;21088;-71
2022/06/24 03:33:05;;;;;;;3.30;0.65;;;;;;;18.42;64.57;100043.33;1678464;84;21679;-72
2022/06/24 03:35:31;;;;;;;2.45;0.68;;;;;;;18.44;64.03;100041.71;1662236;85;21098;-73
2022/06/24 03:37:57;;;;;;;;;;;;;;;18.48;63.03;100047.73;1687482;84;21557;-72
2022/06/24 03:40:24;;;;;;;2.60;1.30;;;;;;;18.52;63.32;100045.36;1679648;84;20167;-72
2022/06/24 03:42:50;;;;;;;2.72;2.47;;;;;;;18.53;63.29;100040.77;1685908;84;21167;-72
2022/06/24 03:45:16;;;;;;;;;;;;;;;18.61;62.98;100039.83;1671018;84;21122;-74
2022/06/24 03:47:43;;;;;;;4.83;2.70;;;;;;;18.62;61.78;100049.53;1653985;85;20417;-73
2022/06/24 03:50:09;;;;;;;;;;;;;;;18.59;62.01;100043.81;1644553;86;21064;-72
2022/06/24 03:52:35;;;;;;;1.57;0.60;;;;;;;18.59;62.33;100045.16;1620796;86;20129;-71
2022/06/24 03:55:03;;;;;;;5.20;0.68;;;;;;;18.55;62.08;100047.54;1666184;85;21119;-72
2022/06/24 03:57:30;;;;;;;1.65;0.60;;;;;;;18.56;62.27;100052.43;1660105;85;21419;-72
2022/06/24 03:59:56;;;;;;;;;;;;;;;18.54;61.80;100047.81;1663118;85;21126;-72
2022/06/24 04:02:23;;;;;;;3.33;0.65;;;;;;;18.51;61.95;100055.85;1672044;85;20164;-72
2022/06/24 04:04:49;;;;;;;1.27;0.75;;;;;;;18.40;61.36;100048.67;1665526;85;21022;-71
2022/06/24 04:07:15;;;;;;;2.45;0.82;;;;;;;18.41;61.79;100048.43;1664598;85;21203;-74
2022/06/24 04:09:42;;;;;;;3.70;0.40;;;;;;;18.43;61.24;100044.95;1667408;85;21117;-72
2022/06/24 04:12:10;;;;;;;4.25;0.72;;;;;;;18.47;60.75;100046.63;1664237;84;21178;-71
2022/06/24 04:17:23;;;;;;;1.10;0.47;;;;;;;18.51;60.38;100051.80;1668112;85;21128;-74
2022/06/24 04:19:52;;;;;;;;;;;;;;;18.54;60.42;100051.32;1669863;85;21466;-71
2022/06/24 04:22:18;;;;;;;1.57;0.85;;;;;;;18.58;60.54;100055.70;1665191;85;20170;-71
2022/06/24 04:24:44;;;;;;;4.28;0.55;;;;;;;18.60;60.14;100049.52;1664577;85;21026;-72
2022/06/24 04:27:10;;;;;;;4.12;0.70;;;;;;;18.69;59.50;100048.02;1657957;85;21080;-71
2022/06/24 04:29:36;;;;;;;1.02;0.60;;;;;;;18.74;59.41;100044.05;1661464;85;21119;-72
2022/06/24 04:32:03;;;;;;;;;;;;;;;18.78;59.15;100054.63;1669948;85;21029;-71
2022/06/24 04:34:29;;;;;;;2.58;0.57;;;;;;;18.80;58.78;100060.63;1659327;85;20576;-73
2022/06/24 04:36:55;;;;;;;3.20;0.85;;;;;;;18.78;58.46;100058.68;1663664;85;21190;-73
2022/06/24 04:39:22;;;;;;;2.05;0.60;;;;;;;18.83;58.35;100051.20;1666231;84;21135;-74
2022/06/24 04:41:48;;;;;;;2.72;0.70;;;;;;;18.91;58.45;100051.30;1663942;85;21071;-75
2022/06/24 04:44:14;;;;;;;0.85;0.57;;;;;;;18.96;58.03;100063.52;1661304;85;21055;-74
2022/06/24 04:46:40;;;;;;;0.67;0.50;;;;;;;19.00;57.69;100063.30;1674320;84;21576;-75
2022/06/24 04:49:06;;;;;;;1.70;1.15;;;;;;;19.03;57.25;100072.27;1674252;84;22275;-73
2022/06/24 04:51:32;;;;;;;1.77;0.62;;;;;;;19.04;56.59;100064.42;1682971;84;21152;-75
2022/06/24 04:53:58;;;;;;;;;;;;;;;19.10;56.82;100070.70;1677128;84;21081;-75
2022/06/24 04:56:25;;;;;;;1.62;0.40;;;;;;;19.18;56.62;100067.59;1666037;84;20149;-72
2022/06/24 04:58:50;;;;;;;;;;;;;;;19.17;56.22;100076.74;1664933;85;21053;-74
2022/06/24 05:01:16;;;;;;;0.75;0.42;;;;;;;19.23;56.33;100078.44;1674161;84;20492;-74
2022/06/24 05:03:43;;;;;;;2.60;1.42;;;;;;;19.24;56.32;100080.89;1696934;84;21097;-74
2022/06/24 05:06:09;;;;;;;1.17;0.60;;;;;;;19.31;56.24;100081.22;1694107;84;21596;-74
2022/06/24 05:08:37;;;;;;;1.15;0.70;;;;;;;19.28;56.14;100079.85;1696926;83;21116;-75
2022/06/24 05:11:03;;;;;;;;;;;;;;;19.29;56.00;100077.95;1703632;83;21018;-74
2022/06/24 05:13:29;;;;;;;1.95;0.95;;;;;;;19.32;55.59;100073.41;1677233;84;20182;-74
2022/06/24 05:15:58;;;;;;;5.45;1.40;;;;;;;19.37;55.63;100076.18;1695232;83;21333;-74
2022/06/24 05:18:24;;;;;;;2.30;0.72;;;;;;;19.43;55.12;100066.51;1704896;83;21037;-69
2022/06/24 05:20:50;;;;;;;;;;;;;;;19.62;55.23;100076.44;1698473;83;21577;-71
2022/06/24 05:23:16;;;;;;;1.60;0.70;;;;;;;19.72;54.63;100082.55;1693906;80;20233;-72
2022/06/24 05:25:42;;;;;;;1.30;0.55;;;;;;;19.69;55.08;100082.20;1689979;83;21160;-68
2022/06/24 05:28:08;;;;;;;5.90;0.53;;;;;;;19.69;54.22;100079.50;1694975;83;21106;-69
2022/06/24 05:30:35;;;;;;;1.87;1.00;;;;;;;19.74;54.08;100087.67;1696064;83;21577;-69
2022/06/24 05:33:01;;;;;;;4.28;0.90;;;;;;;19.79;54.26;100093.14;1670896;84;21089;-71
2022/06/24 05:35:28;;;;;;;3.35;0.68;;;;;;;19.83;54.51;100086.98;1695642;83;21097;-69
2022/06/24 05:37:54;;;;;;;;;;;;;;;19.94;54.02;100082.46;1699120;83;21006;-72
2022/06/24 05:40:20;;;;;;;1.90;0.88;;;;;;;20.13;53.59;100083.44;1695358;83;20149;-72
2022/06/24 05:42:47;;;;;;;1.57;0.80;;;;;;;20.34;53.42;100087.95;1695271;83;21010;-73
2022/06/24 05:45:14;;;;;;;3.15;0.88;;;;;;;20.55;52.20;100092.13;1670663;84;21018;-75
2022/06/24 05:47:40;;;;;;;1.50;0.80;;;;;;;20.67;51.45;100094.70;1671657;85;21104;-70
2022/06/24 05:50:08;;;;;;;2.90;0.78;;;;;;;20.71;52.16;100087.13;1668380;85;21108;-71
2022/06/24 05:55:20;;;;;;;2.05;0.80;;;;;;;20.80;52.00;100097.75;1667348;84;21088;-74
2022/06/24 05:57:46;;;;;;;3.10;0.72;;;;;;;20.83;51.24;100092.89;1694789;83;21042;-72
2022/06/24 06:00:14;;;;;;;2.27;0.70;;;;;;;20.84;51.21;100088.56;1670421;84;21164;-74
2022/06/24 06:02:41;;;;;;;2.02;0.75;;;;;;;20.84;51.33;100096.69;1672083;84;21034;-70
2022/06/24 06:05:08;;;;;;;3.62;0.72;;;;;;;20.86;51.99;100093.73;1696484;83;21215;-79
2022/06/24 06:07:34;;;;;;;2.47;1.00;;;;;;;20.87;51.80;100093.98;1677912;84;21113;-71
2022/06/24 06:10:01;;;;;;;0.85;0.65;;;;;;;20.92;51.40;100089.41;1699061;83;21087;-75
2022/06/24 06:12:27;;;;;;;2.62;0.88;;;;;;;20.96;51.52;100097.31;1682727;83;21002;-69
2022/06/24 06:14:53;;;;;;;;;;;;;;;20.96;51.39;100093.77;1681037;84;21064;-68
2022/06/24 06:17:19;;;;;;;4.08;0.70;;;;;;;20.94;51.64;100104.05;1675526;84;20224;-74
2022/06/24 06:19:45;;;;;;;;;;;;;;;20.86;51.23;100108.63;1678131;84;21069;-79
2022/06/24 06:22:11;;;;;;;1.80;0.88;;;;;;;20.86;51.04;100106.73;1667396;83;20448;-78
2022/06/24 06:24:38;;;;;;;0.98;0.98;;;;;;;20.83;51.33;100107.23;1730412;81;21041;-77
2022/06/24 06:27:04;;;;;;;;;;;;;;;20.82;51.54;100098.85;1730234;81;21033;-78
2022/06/24 06:29:30;;;;;;;1.85;0.70;;;;;;;20.78;51.40;100108.03;1732714;82;20207;-78
2022/06/24 06:31:56;;;;;;;;;;;;;;;20.66;51.98;100118.78;1731052;81;21556;-77
2022/06/24 06:34:23;;;;;;;2.70;0.70;;;;;;;20.65;51.85;100109.05;1722792;81;20242;-75
2022/06/24 06:36:49;;;;;;;1.60;0.70;;;;;;;20.61;52.17;100104.69;1732869;81;21308;-77
2022/06/24 06:39:15;;;;;;;;;;;;;;;20.63;52.41;100113.36;1735633;81;21099;-75
2022/06/24 06:41:41;;;;;;;1.42;0.88;;;;;;;20.66;52.35;100109.30;1729403;82;20131;-76
2022/06/24 06:44:08;;;;;;;2.02;0.88;;;;;;;20.67;52.64;100117.17;1733195;81;21022;-77
2022/06/24 06:46:35;;;;;;;2.33;1.05;;;;;;;20.74;52.63;100111.00;1737175;81;21038;-78
2022/06/24 06:49:01;;;;;;;;;;;;;;;20.82;52.76;100120.52;1711756;83;21461;-78
2022/06/24 06:51:27;;;;;;;1.35;1.10;;;;;;;20.90;53.06;100115.14;1718820;81;20154;-79
2022/06/24 06:53:53;;;;;;;4.00;1.45;;;;;;;20.91;52.70;100108.12;1724725;81;21103;-77
2022/06/24 06:56:20;;;;;;;0.50;0.50;;;;;;;21.01;52.56;100112.77;1694344;81;21288;-77
2022/06/24 06:58:48;;;;;;;;;;;;;;;21.14;52.56;100118.26;1680131;83;21050;-78
2022/06/24 07:01:14;;;;;;;1.12;0.90;;;;;;;21.28;52.08;100117.22;1679799;83;20310;-78
2022/06/24 07:03:42;;;;;;;1.98;1.22;;;;;;;21.35;52.49;100116.45;1691220;83;21022;-78
2022/06/24 07:06:09;;;;;;;1.02;1.00;;;;;;;21.48;52.25;100122.76;1694121;83;21077;-76
2022/06/24 07:08:35;;;;;;;4.72;0.98;;;;;;;21.57;52.06;100114.38;1641268;85;21150;-76
2022/06/24 07:11:03;;;;;;;;;;;;;;;21.66;51.51;100111.14;1672963;84;21572;-77
2022/06/24 07:13:29;;;;;;;1.17;0.60;;;;;;;21.74;51.05;100114.70;1668027;84;20112;-71
2022/06/24 07:15:56;;;;;;;2.27;0.72;;;;;;;21.78;50.97;100117.15;1688274;83;21070;-70
2022/06/24 07:18:26;;;;;;;2.15;1.07;;;;;;;21.85;51.10;100117.71;1674075;84;22053;-70
2022/06/24 07:20:52;;;;;;;3.22;0.68;;;;;;;21.90;50.94;100114.17;1670646;84;21093;-70
2022/06/24 07:23:18;;;;;;;1.72;1.07;;;;;;;21.97;50.91;100118.80;1692980;81;22033;-71
2022/06/24 07:25:45;;;;;;;2.05;0.98;;;;;;;22.03;50.46;100120.98;1698750;83;21001;-70
2022/06/24 07:28:12;;;;;;;2.00;1.02;;;;;;;22.07;50.25;100124.78;1689610;83;21561;-75
2022/06/24 07:30:41;;;;;;;7.45;0.80;;;;;;;22.10;49.59;100114.75;1690302;83;21570;-71
2022/06/24 07:33:09;;;;;;;1.12;0.82;;;;;;;22.16;49.84;100117.73;1694249;82;21513;-72
2022/06/24 07:35:35;;;;;;;1.67;0.62;;;;;;;22.20;50.12;100109.87;1693581;84;21463;-71
2022/06/24 07:38:01;;;;;;;0.80;0.80;;;;;;;22.23;49.30;100113.41;1688410;83;21510;-69
2022/06/24 07:40:28;;;;;;;2.83;0.80;;;;;;;22.26;48.53;100104.19;1700761;83;21180;-69
2022/06/24 07:42:55;;;;;;;4.37;1.30;;;;;;;22.33;48.91;100120.21;1663828;85;21093;-70
2022/06/24 07:45:21;;;;;;;1.30;0.93;;;;;;;22.35;49.21;100120.20;1663529;85;22205;-73
2022/06/24 07:47:47;;;;;;;1.72;1.02;;;;;;;22.38;48.63;100122.94;1661760;85;21576;-71
2022/06/24 07:50:14;;;;;;;2.05;1.00;;;;;;;22.44;48.13;100124.55;1665899;85;21118;-70
2022/06/24 07:52:40;;;;;;;2.27;1.47;;;;;;;22.46;48.88;100128.36;1665882;85;21133;-72
2022/06/24 07:57:52;;;;;;;4.58;0.90;;;;;;;22.23;48.43;100082.19;1702376;83;21811;-72
2022/06/24 08:00:19;;;;;;;2.98;1.30;;;;;;;22.49;48.55;100126.44;1705186;83;21035;-73
2022/06/24 08:02:48;;;;;;;6.15;0.80;;;;;;;22.51;48.47;100122.94;1690027;83;21379;-73
2022/06/24 08:05:15;;;;;;;4.90;1.17;;;;;;;22.55;48.19;100119.94;1733576;82;21043;-72
2022/06/24 08:07:45;;;;;;;1.32;1.12;;;;;;;22.63;47.73;100124.80;1701886;82;21031;-70
2022/06/24 08:10:15;;;;;;;3.52;1.20;;;;;;;22.68;47.54;100113.94;1704550;83;21034;-70
2022/06/24 08:12:43;;;;;;;7.17;1.00;;;;;;;22.71;47.86;100117.45;1692956;83;21064;-70
2022/06/24 08:15:09;;;;;;;1.90;0.98;;;;;;;22.75;47.86;100112.28;1687566;83;21169;-69
2022/06/24 08:17:35;;;;;;;1.37;0.75;;;;;;;22.85;48.08;100104.64;1694547;83;20999;-69
2022/06/24 08:20:03;;;;;;;3.10;1.20;;;;;;;22.89;48.05;100103.03;1697130;83;21063;-74
2022/06/24 08:22:29;;;;;;;3.20;0.98;;;;;;;22.91;47.64;100111.16;1690062;82;21073;-72
2022/06/24 08:24:55;;;;;;;3.20;0.82;;;;;;;22.97;47.52;100114.68;1662682;85;21637;-71
2022/06/24 08:27:21;;;;;;;3.75;0.90;;;;;;;23.06;47.85;100107.63;1685606;84;21084;-71
2022/06/24 08:29:48;;;;;;;3.35;1.07;;;;;;;23.19;48.13;100110.30;1670163;85;21073;-71
2022/06/24 08:32:14;;;;;;;2.92;1.35;;;;;;;23.32;47.89;100107.53;1658997;85;21047;-71
2022/06/24 08:34:40;;;;;;;2.17;0.82;;;;;;;23.43;47.39;100109.63;1691596;83;21064;-73
2022/06/24 08:37:06;;;;;;;3.40;0.90;;;;;;;23.54;45.90;100111.77;1655180;85;21118;-69
2022/06/24 08:39:33;;;;;;;1.60;1.50;;;;;;;23.66;46.00;100101.37;1664824;85;21080;-74
2022/06/24 08:42:03;;;;;;;5.30;0.90;;;;;;;23.75;45.09;100113.27;1679480;84;21067;-69
2022/06/24 08:44:29;;;;;;;5.50;0.98;;;;;;;23.81;45.03;100108.11;1670085;83;22008;-66
2022/06/24 08:46:56;;;;;;;3.77;1.07;;;;;;;23.87;45.16;100101.52;1702402;83;21058;-70
2022/06/24 08:49:22;;;;;;;3.12;1.15;;;;;;;23.90;45.13;100107.77;1688756;83;21549;-74
2022/06/24 08:51:50;;;;;;;2.00;1.12;;;;;;;23.88;44.40;100116.77;1693952;83;21897;-68
2022/06/24 08:54:20;;;;;;;1.40;0.95;;;;;;;23.90;44.69;100111.02;1690201;83;21019;-68
2022/06/24 08:56:47;;;;;;;2.77;1.17;;;;;;;23.97;44.13;100093.02;1720089;82;21036;-69
2022/06/24 08:59:13;;;;;;;3.40;0.98;;;;;;;24.07;44.56;100103.82;1693796;83;21148;-74
2022/06/24 09:01:41;;;;;;;1.42;1.22;;;;;;;24.13;42.25;100093.17;1693765;83;21569;-70
2022/06/24 09:04:10;;;;;;;2.33;0.90;;;;;;;24.09;41.61;100120.69;1691561;84;21002;-70
2022/06/24 09:06:40;;;;;;;1.20;1.20;;;;;;;24.06;41.77;100094.84;1721172;82;21156;-73
2022/06/24 09:09:07;;;;;;;3.00;1.27;;;;;;;24.07;42.15;100093.77;1712685;82;21410;-70
2022/06/24 09:11:41;;;;;;;2.98;1.25;;;;;;;24.17;41.66;100092.06;1723179;83;21125;-71
2022/06/24 09:14:09;;;;;;;2.60;1.75;;;;;;;24.34;41.55;100091.09;1715508;82;21067;-71
2022/06/24 09:16:37;;;;;;;7.15;1.52;;;;;;;24.52;41.61;100086.05;1721637;82;21071;-71
2022/06/24 09:19:06;;;;;;;1.45;1.12;;;;;;;24.66;40.77;100085.08;1718727;82;21088;-73
2022/06/24 09:21:39;;;;;;;5.75;0.98;;;;;;;24.79;40.18;100086.31;1720605;82;21137;-75
2022/06/24 09:24:04;;;;;;;1.25;1.02;;;;;;;24.89;40.02;100090.03;1691585;83;21029;-72
2022/06/24 09:26:37;;;;;;;5.08;1.37;;;;;;;24.97;39.89;100082.56;1698103;83;21054;-72
2022/06/24 09:29:09;;;;;;;1.20;1.10;;;;;;;25.02;39.90;100068.32;1697229;83;21087;-70
2022/06/24 09:31:38;;;;;;;6.40;1.10;;;;;;;25.09;39.49;100076.69;1696969;83;21073;-72
2022/06/24 09:34:16;;;;;;;1.27;1.17;;;;;;;25.13;38.95;100072.27;1702348;82;20995;-71
2022/06/24 09:36:47;;;;;;;6.90;1.35;;;;;;;25.09;39.38;100068.51;1709537;83;21074;-74
2022/06/24 09:39:15;;;;;;;2.27;1.15;;;;;;;25.05;39.04;100073.20;1720785;82;21057;-69
2022/06/24 09:41:53;;;;;;;2.25;0.82;;;;;;;25.06;39.04;100066.63;1697999;83;21523;-72
2022/06/24 09:44:20;;;;;;;2.87;1.50;;;;;;;25.08;39.14;100084.06;1719927;82;21092;-71
2022/06/24 09:46:48;;;;;;;3.37;1.00;;;;;;;25.01;38.46;100074.86;1722652;82;21053;-71
2022/06/24 09:49:17;;;;;;;2.02;1.07;;;;;;;24.95;38.88;100079.32;1709699;83;21554;-74
2022/06/24 09:51:45;;;;;;;4.22;1.25;;;;;;;24.90;38.66;100104.70;1716901;82;21093;-72
2022/06/24 09:54:14;;;;;;;3.40;1.65;;;;;;;24.83;38.71;100087.91;1721215;82;21033;-71
2022/06/24 09:56:44;;;;;;;1.05;1.00;;;;;;;24.74;39.04;100077.37;1721654;82;21588;-70
2022/06/24 10:02:01;;;;;;;4.35;1.00;;;;;;;24.61;39.87;100068.78;1693690;83;21037;-71
2022/06/24 10:04:28;;;;;;;1.25;1.12;;;;;;;24.67;40.01;100072.27;1721545;82;21034;-72
2022/06/24 10:06:58;;;;;;;1.87;1.00;;;;;;;24.76;39.38;100079.27;1723458;82;21085;-72
2022/06/24 10:09:29;;;;;;;1.57;1.22;;;;;;;24.78;38.35;100093.41;1719538;82;20978;-72
2022/06/24 10:12:01;;;;;;;1.27;1.00;;;;;;;24.74;38.42;100081.47;1700113;82;21022;-71
2022/06/24 10:14:32;;;;;;;1.60;1.05;;;;;;;24.70;38.48;100064.88;1691317;85;21136;-70
2022/06/24 10:17:01;;;;;;;2.50;0.85;;;;;;;24.69;38.12;100064.61;1685495;84;21137;-71
2022/06/24 10:19:31;;;;;;;1.40;1.20;;;;;;;24.73;38.51;100073.02;1687103;84;21726;-72
2022/06/24 10:21:59;;;;;;;3.42;1.45;;;;;;;24.77;37.63;100082.23;1684015;85;21098;-71
2022/06/24 10:24:31;;;;;;;1.07;0.98;;;;;;;24.81;37.82;100061.50;1663952;84;21471;-69
2022/06/24 10:26:57;;;;;;;0.93;0.68;;;;;;;24.86;37.67;100066.34;1664897;84;21577;-70
2022/06/24 10:29:30;;;;;;;3.08;1.37;;;;;;;24.94;37.64;100057.23;1663556;84;21143;-69
2022/06/24 10:32:05;;;;;;;2.65;0.95;;;;;;;25.03;37.74;100056.33;1703409;84;21070;-70
2022/06/24 10:34:36;;;;;;;6.37;0.75;;;;;;;25.14;37.47;100050.73;1673150;85;21019;-70
2022/06/24 10:37:17;;;;;;;3.30;1.05;;;;;;;25.22;37.26;100052.80;1684620;84;21118;-69
2022/06/24 10:39:50;;;;;;;3.47;1.25;;;;;;;25.25;37.01;100048.16;1709350;83;21078;-71
2022/06/24 10:42:21;;;;;;;0.60;0.60;;;;;;;25.26;37.45;100067.52;1681694;84;21558;-70
2022/06/24 10:44:58;;;;;;;3.40;0.78;;;;;;;25.28;37.54;100064.48;1681189;84;21032;-72
2022/06/24 10:47:27;;;;;;;3.20;1.40;;;;;;;25.27;37.27;100053.33;1681679;84;20991;-71
2022/06/24 10:50:02;;;;;;;1.95;1.02;;;;;;;25.22;37.21;100046.80;1709905;83;21106;-72
2022/06/24 10:52:36;;;;;;;1.17;0.88;;;;;;;25.22;37.10;100047.34;1701846;83;21106;-69
2022/06/24 10:57:55;;;;;;;;;;;;;;;25.17;37.19;100063.79;1691037;85;21098;-71
2022/06/24 11:00:25;;;;;;;0.98;0.98;;;;;;;25.14;37.14;100053.45;1688761;84;20476;-71
2022/06/24 11:03:06;;;;;;;3.37;1.60;;;;;;;25.08;37.57;100051.34;1673411;85;21109;-69
2022/06/24 11:05:38;;;;;;;9.20;1.02;;;;;;;25.13;37.79;100047.73;1672980;86;21089;-71
2022/06/24 11:08:14;;;;;;;1.60;1.12;;;;;;;25.19;37.89;100055.56;1673327;85;21104;-69
2022/06/24 11:10:44;;;;;;;1.77;0.82;;;;;;;25.22;38.12;100037.26;1659355;86;21462;-69
2022/06/24 11:13:10;;;;;;;4.78;0.88;;;;;;;25.23;37.29;100042.19;1672339;85;21592;-71
2022/06/24 11:15:54;;;;;;;3.80;0.88;;;;;;;25.20;37.45;100042.73;1672119;84;21175;-69
2022/06/24 11:18:29;;;;;;;0.68;0.68;;;;;;;25.22;37.15;100030.97;1657318;84;21122;-70
2022/06/24 11:21:01;;;;;;;1.85;0.98;;;;;;;25.31;37.25;100027.88;1654289;86;21116;-70
2022/06/24 11:23:33;;;;;;;1.95;0.85;;;;;;;25.44;37.01;100039.98;1670640;85;21045;-69
2022/06/24 11:26:08;;;;;;;1.32;1.05;;;;;;;25.53;36.91;100027.30;1675606;85;21089;-70
2022/06/24 11:28:37;;;;;;;0.80;0.80;;;;;;;25.56;36.66;100021.79;1657771;86;21659;-69
2022/06/24 11:31:25;;;;;;;2.62;0.72;;;;;;;25.51;36.54;100039.63;1657761;84;21099;-70
2022/06/24 11:34:07;;;;;;;4.05;1.07;;;;;;;25.42;36.83;100034.81;1677849;83;21048;-70
2022/06/24 11:36:33;;;;;;;5.05;0.82;;;;;;;25.37;36.75;100019.91;1688426;83;21604;-70
2022/06/24 11:39:09;;;;;;;0.78;0.72;;;;;;;25.38;36.75;100017.98;1685273;83;21057;-70
2022/06/24 11:41:37;;;;;;;;;;;;;;;25.42;36.89;100009.45;1697393;85;21598;-69
2022/06/24 11:44:04;;;;;;;4.37;1.00;;;;;;;25.50;37.35;100018.89;1683221;83;20148;-71
2022/06/24 11:46:32;;;;;;;3.02;1.02;;;;;;;25.53;36.29;100023.77;1686388;83;21149;-70
2022/06/24 11:49:07;;;;;;;2.50;0.60;;;;;;;25.58;36.26;99997.74;1696560;84;21498;-69
2022/06/24 11:51:34;;;;;;;2.83;0.60;;;;;;;25.62;36.20;100000.16;1690672;83;21105;-70
2022/06/24 11:54:06;;;;;;;2.95;0.80;;;;;;;25.62;36.07;100008.34;1696720;83;21085;-70